Time;durP1;ratioP1;P1;durP2;ratioP2;P2;SDS_P1;SDS_P2;PMS_P1;PMS_P2;Temp;Humidity;BMP_temperature;BMP_pressure;BME280_temperature;BME280_humidity;BME280_pressure;Samples;Min_cycle;Max_cycle;Signal;HPM_P1;HPM_P2
2021/06/07 00:01:56;;;;;;;12.50;7.13;;;17.90;1.00;;;;;;5056447;28;20379;-72
2021/06/07 00:04:23;;;;;;;16.83;7.80;;;17.90;1.00;;;;;;5042511;28;20490;-72
2021/06/07 00:06:49;;;;;;;13.97;8.10;;;17.90;1.00;;;;;;5055041;28;20413;-72
2021/06/07 00:09:17;;;;;;;16.60;8.30;;;17.90;1.00;;;;;;5056642;28;20398;-72
2021/06/07 00:11:49;;;;;;;14.20;8.30;;;18.00;1.00;;;;;;5050464;28;20458;-72
2021/06/07 00:14:19;;;;;;;13.97;7.10;;;18.00;1.00;;;;;;5051844;28;20409;-72
2021/06/07 00:16:46;;;;;;;15.90;7.70;;;18.00;1.00;;;;;;5049269;28;20414;-72
2021/06/07 00:19:17;;;;;;;13.20;7.90;;;18.00;1.00;;;;;;5035921;28;20800;-72
2021/06/07 00:21:47;;;;;;;13.83;7.50;;;18.00;1.00;;;;;;5036161;28;20400;-72
2021/06/07 00:24:13;;;;;;;12.97;7.23;;;17.90;1.00;;;;;;5039737;28;20768;-72
2021/06/07 00:26:39;;;;;;;16.63;7.90;;;18.00;1.00;;;;;;5055894;28;20405;-72
2021/06/07 00:29:06;;;;;;;22.30;7.90;;;18.00;1.00;;;;;;5055096;28;20450;-72
2021/06/07 00:31:33;;;;;;;18.37;8.50;;;17.90;1.00;;;;;;5053456;28;20459;-72
2021/06/07 00:33:58;;;;;;;15.17;8.80;;;17.90;1.00;;;;;;5054119;28;20403;-72
2021/06/07 00:36:25;;;;;;;13.93;8.90;;;17.90;1.00;;;;;;5055471;28;20374;-72
2021/06/07 00:38:53;;;;;;;15.37;8.50;;;17.90;1.00;;;;;;5052907;28;20331;-74
2021/06/07 00:41:22;;;;;;;18.00;10.17;;;17.90;1.00;;;;;;5035468;28;20899;-74
2021/06/07 00:43:58;;;;;;;14.30;9.07;;;17.90;1.00;;;;;;5035833;28;20541;-74
2021/06/07 00:46:24;;;;;;;16.53;9.00;;;17.90;1.00;;;;;;5036043;28;20524;-74
2021/06/07 00:48:51;;;;;;;13.73;8.70;;;;;;;;;;5035825;28;20407;-74
2021/06/07 00:51:17;;;;;;;16.97;9.07;;;;;;;;;;5035788;28;20374;-74
2021/06/07 00:53:43;;;;;;;33.23;10.80;;;17.80;1.00;;;;;;5035991;28;20388;-73
2021/06/07 00:56:11;;;;;;;18.73;10.50;;;17.80;1.00;;;;;;5035226;28;20426;-72
2021/06/07 00:58:45;;;;;;;19.10;10.17;;;17.80;1.00;;;;;;5035233;28;20192;-72
2021/06/07 01:01:13;;;;;;;16.77;10.60;;;17.70;1.00;;;;;;5035323;28;20396;-72
2021/06/07 01:03:42;;;;;;;20.70;11.83;;;17.70;1.00;;;;;;5035091;28;20405;-72
2021/06/07 01:06:09;;;;;;;17.17;10.30;;;17.70;1.00;;;;;;5035281;28;20389;-72
2021/06/07 01:08:35;;;;;;;20.07;11.33;;;;;;;;;;5035545;28;20478;-72
2021/06/07 01:11:02;;;;;;;19.63;12.10;;;;;;;;;;5037345;28;20416;-72
2021/06/07 01:13:27;;;;;;;22.67;10.83;;;17.50;1.00;;;;;;5035869;28;20416;-72
2021/06/07 01:15:56;;;;;;;18.57;10.57;;;17.50;1.00;;;;;;5034218;28;20502;-72
2021/06/07 01:18:23;;;;;;;19.97;11.13;;;17.50;1.00;;;;;;5034925;28;20461;-72
2021/06/07 01:20:52;;;;;;;22.37;11.77;;;17.50;1.00;;;;;;5054667;28;20422;-72
2021/06/07 01:23:18;;;;;;;21.80;12.10;;;;;;;;;;5054650;28;20782;-72
2021/06/07 01:25:46;;;;;;;31.30;11.30;;;17.40;1.00;;;;;;5055209;28;20366;-74
2021/06/07 01:28:17;;;;;;;20.67;11.30;;;17.40;1.00;;;;;;5036596;28;20488;-74
2021/06/07 01:30:45;;;;;;;18.40;10.10;;;17.40;1.00;;;;;;5034700;28;20373;-75
2021/06/07 01:33:18;;;;;;;21.57;11.90;;;17.40;1.00;;;;;;5034712;28;20385;-74
2021/06/07 01:35:54;;;;;;;18.07;10.63;;;17.40;1.00;;;;;;5034989;28;20398;-74
2021/06/07 01:38:20;;;;;;;20.87;10.90;;;17.30;1.00;;;;;;5047418;28;20432;-74
2021/06/07 01:40:59;;;;;;;21.30;10.73;;;17.30;1.00;;;;;;5054625;28;20422;-74
2021/06/07 01:43:26;;;;;;;17.80;10.93;;;17.30;1.00;;;;;;5044060;28;20429;-74
2021/06/07 01:46:04;;;;;;;20.80;11.20;;;17.30;1.00;;;;;;5034669;28;20378;-74
2021/06/07 01:48:35;;;;;;;22.03;10.40;;;17.30;1.00;;;;;;5051769;28;20871;-74
2021/06/07 01:51:06;;;;;;;22.30;10.73;;;17.30;1.00;;;;;;5054533;28;20386;-74
2021/06/07 01:53:32;;;;;;;20.53;11.37;;;;;;;;;;5054486;28;20378;-74
2021/06/07 01:56:06;;;;;;;24.70;11.83;;;17.30;1.00;;;;;;5041711;28;20443;-74
2021/06/07 01:58:34;;;;;;;21.77;12.47;;;17.20;1.00;;;;;;5033086;28;20794;-74
2021/06/07 02:01:15;;;;;;;21.23;11.57;;;17.20;1.00;;;;;;5034356;28;20958;-74
2021/06/07 02:03:51;;;;;;;20.30;11.67;;;17.20;1.00;;;;;;5034658;28;20404;-74
2021/06/07 02:06:21;;;;;;;22.90;12.30;;;17.20;1.00;;;;;;5034675;28;20429;-74
2021/06/07 02:08:59;;;;;;;24.10;12.50;;;17.20;1.00;;;;;;5034285;28;20759;-74
2021/06/07 02:11:29;;;;;;;24.10;11.90;;;17.20;1.00;;;;;;5051133;28;20484;-72
2021/06/07 02:14:00;;;;;;;35.97;12.80;;;17.20;1.00;;;;;;5039977;28;20451;-72
2021/06/07 02:16:30;;;;;;;26.20;13.20;;;17.10;1.00;;;;;;5034217;28;20397;-72
2021/06/07 02:18:56;;;;;;;29.53;12.67;;;17.10;1.00;;;;;;5033698;28;20425;-73
2021/06/07 02:21:25;;;;;;;27.40;11.60;;;17.10;1.00;;;;;;5033956;28;20461;-72
2021/06/07 02:23:52;;;;;;;27.00;12.40;;;17.10;1.00;;;;;;5037161;28;20427;-73
2021/06/07 02:26:19;;;;;;;22.37;11.77;;;17.10;1.00;;;;;;5033287;28;20393;-72
2021/06/07 02:28:53;;;;;;;23.60;12.23;;;17.10;1.00;;;;;;5033515;28;20402;-72
2021/06/07 02:31:21;;;;;;;22.27;11.37;;;17.10;1.00;;;;;;5033574;28;20451;-72
2021/06/07 02:33:52;;;;;;;29.43;13.23;;;17.10;1.00;;;;;;5037326;28;20421;-72
2021/06/07 02:36:19;;;;;;;26.23;12.97;;;17.00;1.00;;;;;;5053252;28;20463;-72
2021/06/07 02:38:45;;;;;;;21.43;12.43;;;;;;;;;;5052609;28;20451;-72
2021/06/07 02:41:12;;;;;;;29.23;13.53;;;;;;;;;;5034151;28;20421;-74
2021/06/07 02:43:39;;;;;;;23.80;12.33;;;17.00;1.00;;;;;;5043239;28;20594;-74
2021/06/07 02:46:10;;;;;;;25.30;13.27;;;;;;;;;;5053621;28;20569;-74
2021/06/07 02:48:37;;;;;;;25.60;12.30;;;17.00;1.00;;;;;;5041300;28;20775;-74
2021/06/07 02:51:16;;;;;;;30.33;13.60;;;16.90;1.00;;;;;;5033810;28;20406;-74
2021/06/07 02:53:48;;;;;;;24.10;13.27;;;16.90;1.00;;;;;;5033755;28;20482;-74
2021/06/07 02:56:22;;;;;;;22.23;11.90;;;;;;;;;;5033996;28;20374;-72
2021/06/07 02:58:48;;;;;;;29.13;13.07;;;17.00;1.00;;;;;;5040519;28;20443;-72
2021/06/07 03:01:13;;;;;;;24.17;12.47;;;17.00;1.00;;;;;;5048389;28;20415;-72
2021/06/07 03:03:40;;;;;;;27.27;13.00;;;;;;;;;;5033438;28;20156;-72
2021/06/07 03:06:06;;;;;;;24.57;12.40;;;17.00;1.00;;;;;;5033146;28;20271;-73
2021/06/07 03:08:33;;;;;;;26.93;13.00;;;17.00;1.00;;;;;;5041947;28;20484;-73
2021/06/07 03:11:03;;;;;;;25.87;12.67;;;17.00;1.00;;;;;;5033934;28;20458;-72
2021/06/07 03:13:29;;;;;;;28.40;12.97;;;17.00;1.00;;;;;;5045758;28;20923;-72
2021/06/07 03:16:04;;;;;;;23.77;13.00;;;;;;;;;;5053575;28;20422;-73
2021/06/07 03:18:30;;;;;;;23.63;12.00;;;17.00;1.00;;;;;;5053087;28;20227;-73
2021/06/07 03:20:56;;;;;;;28.93;13.47;;;16.90;1.00;;;;;;5053157;28;20855;-72
2021/06/07 03:23:30;;;;;;;24.80;12.10;;;16.90;1.00;;;;;;5053294;28;20366;-72
2021/06/07 03:36:03;;;;;;;23.07;11.83;;;16.90;1.00;;;;;;5041273;28;20412;-80
2021/06/07 03:42:24;;;;;;;30.43;12.30;;;16.90;1.00;;;;;;5040254;28;20390;-80
2021/06/07 03:48:12;;;;;;;27.30;13.07;;;16.80;1.00;;;;;;5056739;28;20374;-78
2021/06/07 03:50:40;;;;;;;41.93;14.63;;;16.90;1.00;;;;;;5048996;28;20841;-78
2021/06/07 03:56:27;;;;;;;21.80;11.40;;;16.90;1.00;;;;;;5056948;28;20399;-77
2021/06/07 03:58:57;;;;;;;23.37;12.30;;;16.90;1.00;;;;;;5040634;28;20916;-77
2021/06/07 04:01:33;;;;;;;26.03;12.23;;;16.90;1.00;;;;;;5056397;28;20172;-77
2021/06/07 04:04:22;;;;;;;26.00;12.80;;;16.80;1.00;;;;;;5056312;28;20376;-79
2021/06/07 04:06:51;;;;;;;28.50;12.80;;;16.80;1.00;;;;;;5056550;28;20391;-75
2021/06/07 04:09:57;;;;;;;28.17;13.77;;;16.80;1.00;;;;;;5056561;28;20741;-74
2021/06/07 04:12:23;;;;;;;29.40;12.60;;;16.70;1.00;;;;;;5038880;28;20419;-72
2021/06/07 04:14:49;;;;;;;30.90;13.53;;;;;;;;;;5035831;28;20435;-71
2021/06/07 04:17:15;;;;;;;34.50;13.33;;;;;;;;;;5036065;28;20164;-71
2021/06/07 04:19:46;;;;;;;36.93;14.40;;;16.60;1.00;;;;;;5050325;28;20493;-71
2021/06/07 04:22:12;;;;;;;27.00;12.90;;;;;;;;;;5055562;28;20444;-72
2021/06/07 04:24:38;;;;;;;29.80;13.70;;;;;;;;;;5055770;28;20407;-71
2021/06/07 04:27:04;;;;;;;36.17;14.37;;;16.60;1.00;;;;;;5052783;28;20488;-72
2021/06/07 04:29:30;;;;;;;30.73;14.27;;;16.60;1.00;;;;;;5053721;28;20422;-71
2021/06/07 04:31:56;;;;;;;28.37;13.93;;;16.70;1.00;;;;;;5055707;28;20431;-72
2021/06/07 04:34:22;;;;;;;31.23;13.40;;;;;;;;;;5050333;28;20188;-72
2021/06/07 04:36:48;;;;;;;35.20;14.40;;;;;;;;;;5047206;28;20217;-71
2021/06/07 04:39:14;;;;;;;33.97;13.83;;;16.70;1.00;;;;;;5055367;28;20889;-72
2021/06/07 04:41:39;;;;;;;25.70;13.10;;;16.70;1.00;;;;;;5044616;28;20396;-72
2021/06/07 04:44:09;;;;;;;35.53;14.33;;;16.80;1.00;;;;;;5037043;28;20181;-72
2021/06/07 04:46:35;;;;;;;28.30;13.83;;;16.80;1.00;;;;;;5053112;28;20631;-72
2021/06/07 04:49:03;;;;;;;31.03;14.83;;;16.80;1.00;;;;;;5053570;28;20429;-71
2021/06/07 04:51:33;;;;;;;33.20;15.60;;;16.80;1.00;;;;;;5035618;28;20234;-72
2021/06/07 04:53:59;;;;;;;35.20;14.73;;;16.80;1.00;;;;;;5034684;28;20402;-71
2021/06/07 04:56:34;;;;;;;34.20;13.87;;;16.80;1.00;;;;;;5035646;28;20422;-75
2021/06/07 04:59:45;;;;;;;28.97;14.60;;;16.80;1.00;;;;;;5035653;28;20192;-74
2021/06/07 05:02:27;;;;;;;34.07;14.57;;;16.80;1.00;;;;;;5041065;28;20425;-75
2021/06/07 05:04:53;;;;;;;31.73;13.20;;;16.90;1.00;;;;;;5038286;28;20853;-75
2021/06/07 05:07:27;;;;;;;34.60;14.27;;;16.90;1.00;;;;;;5034418;28;20391;-75
2021/06/07 05:10:10;;;;;;;29.80;13.77;;;16.90;1.00;;;;;;5047199;28;20630;-75
2021/06/07 05:12:40;;;;;;;29.23;13.33;;;16.90;1.00;;;;;;5053682;28;20385;-72
2021/06/07 05:15:08;;;;;;;29.30;13.83;;;16.90;1.00;;;;;;5040722;28;20405;-72
2021/06/07 05:17:34;;;;;;;32.10;14.40;;;;;;;;;;5034861;28;20424;-72
2021/06/07 05:20:00;;;;;;;42.37;15.60;;;16.90;1.00;;;;;;5035119;28;20952;-72
2021/06/07 05:22:28;;;;;;;28.50;14.23;;;;;;;;;;5034916;28;20385;-72
2021/06/07 05:24:54;;;;;;;30.50;14.00;;;16.90;1.00;;;;;;5052335;28;20901;-72
2021/06/07 05:27:20;;;;;;;86.00;19.90;;;;;;;;;;5051150;28;20768;-72
2021/06/07 05:29:46;;;;;;;28.53;13.20;;;;;;;;;;5049332;28;20405;-72
2021/06/07 05:32:12;;;;;;;41.57;13.90;;;;;;;;;;5041106;28;20401;-72
2021/06/07 05:34:38;;;;;;;31.70;14.30;;;;;;;;;;5045552;28;20755;-72
2021/06/07 05:37:05;;;;;;;34.10;14.40;;;16.90;1.00;;;;;;5041095;28;20418;-72
2021/06/07 05:39:31;;;;;;;30.60;14.80;;;;;;;;;;5059577;28;20516;-72
2021/06/07 05:41:57;;;;;;;27.43;12.87;;;17.00;1.00;;;;;;5050883;28;20419;-75
2021/06/07 05:44:51;;;;;;;26.70;13.53;;;17.00;1.00;;;;;;5054442;28;20480;-76
2021/06/07 05:47:17;;;;;;;34.47;13.93;;;16.90;1.00;;;;;;5043963;28;20516;-75
2021/06/07 05:49:57;;;;;;;34.73;13.73;;;16.90;1.00;;;;;;5053942;28;20460;-75
2021/06/07 05:52:23;;;;;;;29.00;13.40;;;16.90;1.00;;;;;;5048589;28;20186;-76
2021/06/07 05:54:57;;;;;;;29.50;14.03;;;16.90;1.00;;;;;;5049100;28;20780;-75
2021/06/07 05:57:23;;;;;;;35.23;15.43;;;16.90;1.00;;;;;;5054606;28;20395;-73
2021/06/07 05:59:49;;;;;;;32.97;14.50;;;;;;;;;;5045371;28;20429;-73
2021/06/07 06:02:16;;;;;;;28.83;13.70;;;16.80;1.00;;;;;;5033716;28;20189;-73
2021/06/07 06:04:42;;;;;;;29.17;13.67;;;16.90;1.00;;;;;;5034212;28;20406;-72
2021/06/07 06:07:09;;;;;;;25.20;13.57;;;;;;;;;;5034133;28;20530;-72
2021/06/07 06:09:35;;;;;;;25.10;13.03;;;;;;;;;;5033946;28;20424;-72
2021/06/07 06:12:01;;;;;;;27.40;12.53;;;;;;;;;;5033573;28;20377;-74
2021/06/07 06:14:28;;;;;;;27.07;13.10;;;16.80;1.00;;;;;;5033290;28;20372;-74
2021/06/07 06:16:54;;;;;;;24.30;12.40;;;;;;;;;;5033206;28;20408;-74
2021/06/07 06:19:22;;;;;;;25.50;12.80;;;;;;;;;;5033181;28;20454;-74
2021/06/07 06:21:48;;;;;;;29.30;14.30;;;;;;;;;;5033145;28;20389;-74
2021/06/07 06:24:15;;;;;;;30.30;13.80;;;;;;;;;;5033159;28;20370;-74
2021/06/07 06:26:41;;;;;;;28.63;14.00;;;;;;;;;;5046677;28;20426;-74
2021/06/07 06:29:07;;;;;;;26.47;13.13;;;;;;;;;;5052998;28;20365;-74
2021/06/07 06:31:34;;;;;;;25.40;13.20;;;16.90;1.00;;;;;;5052801;28;20433;-74
2021/06/07 06:34:01;;;;;;;27.63;12.93;;;16.80;1.00;;;;;;5052928;28;20377;-74
2021/06/07 06:36:27;;;;;;;25.50;12.73;;;16.70;1.00;;;;;;5052481;28;20436;-74
2021/06/07 06:38:54;;;;;;;29.60;14.10;;;;;;;;;;5052804;28;20450;-74
2021/06/07 06:41:20;;;;;;;25.03;12.47;;;;;;;;;;5052474;28;20631;-74
2021/06/07 06:43:46;;;;;;;33.17;13.40;;;;;;;;;;5053082;28;20457;-73
2021/06/07 06:46:12;;;;;;;23.00;11.60;;;16.70;1.00;;;;;;5033282;28;20398;-73
2021/06/07 06:48:38;;;;;;;22.63;12.57;;;;;;;;;;5032889;28;20944;-73
2021/06/07 06:51:05;;;;;;;28.47;12.50;;;;;;;;;;5032810;28;20374;-73
2021/06/07 06:53:31;;;;;;;27.77;12.20;;;;;;;;;;5032845;28;20395;-73
2021/06/07 06:55:57;;;;;;;26.90;13.87;;;;;;;;;;5032709;28;20370;-73
2021/06/07 06:58:23;;;;;;;28.57;13.47;;;;;;;;;;5033096;28;20520;-72
2021/06/07 07:00:49;;;;;;;32.87;13.50;;;;;;;;;;5032810;28;20821;-73
2021/06/07 07:03:18;;;;;;;29.00;14.13;;;16.70;1.00;;;;;;5032726;28;20453;-73
2021/06/07 07:05:45;;;;;;;35.47;14.83;;;16.70;1.00;;;;;;5032698;28;20371;-73
2021/06/07 07:08:11;;;;;;;31.20;13.27;;;;;;;;;;5032597;28;20766;-73
2021/06/07 07:10:39;;;;;;;23.93;13.10;;;16.80;1.00;;;;;;5032750;28;20434;-73
2021/06/07 07:13:05;;;;;;;23.07;13.13;;;;;;;;;;5034324;28;20397;-74
2021/06/07 07:15:31;;;;;;;26.27;12.77;;;;;;;;;;5036579;28;20753;-74
2021/06/07 07:17:57;;;;;;;25.73;13.23;;;;;;;;;;5035318;28;20543;-74
2021/06/07 07:20:23;;;;;;;29.47;12.77;;;;;;;;;;5036489;28;20381;-74
2021/06/07 07:22:49;;;;;;;26.73;13.57;;;;;;;;;;5036546;28;20403;-74
2021/06/07 07:25:16;;;;;;;29.77;13.00;;;17.20;1.00;;;;;;5036281;28;20410;-74
2021/06/07 07:27:42;;;;;;;25.20;14.27;;;17.20;1.00;;;;;;5036832;28;21114;-73
2021/06/07 07:30:11;;;;;;;34.20;14.60;;;17.30;1.00;;;;;;5036420;28;20863;-73
2021/06/07 07:32:38;;;;;;;31.23;15.23;;;;;;;;;;5036188;28;20373;-73
2021/06/07 07:35:05;;;;;;;30.00;13.87;;;17.40;1.00;;;;;;5036003;28;20421;-73
2021/06/07 07:37:30;;;;;;;23.27;13.33;;;17.50;1.00;;;;;;5035894;28;20466;-73
2021/06/07 07:39:56;;;;;;;32.03;13.63;;;;;;;;;;5038776;28;21243;-73
2021/06/07 07:42:23;;;;;;;26.93;14.17;;;;;;;;;;5056318;28;20164;-74
2021/06/07 07:44:51;;;;;;;25.97;13.53;;;17.70;1.00;;;;;;5047345;28;20469;-74
2021/06/07 07:47:18;;;;;;;29.03;13.80;;;;;;;;;;5042223;28;20484;-74
2021/06/07 07:49:44;;;;;;;30.50;14.30;;;17.70;1.00;;;;;;5044805;28;20405;-74
2021/06/07 07:52:11;;;;;;;27.73;13.07;;;;;;;;;;5055624;28;20401;-74
2021/06/07 07:54:37;;;;;;;34.30;13.97;;;;;;;;;;5050460;28;20974;-74
2021/06/07 07:57:05;;;;;;;27.30;12.90;;;17.80;1.00;;;;;;5035693;28;20400;-74
2021/06/07 07:59:30;;;;;;;28.80;12.97;;;17.80;1.00;;;;;;5035853;28;20422;-74
2021/06/07 08:01:56;;;;;;;24.73;13.60;;;;;;;;;;5035608;28;20403;-74
2021/06/07 08:04:22;;;;;;;25.83;12.77;;;;;;;;;;5035523;28;20158;-74
2021/06/07 08:06:48;;;;;;;25.97;13.90;;;;;;;;;;5052225;28;20410;-74
2021/06/07 08:09:14;;;;;;;25.97;13.57;;;18.00;1.00;;;;;;5038496;28;20423;-74
2021/06/07 08:11:40;;;;;;;28.10;13.70;;;;;;;;;;5035687;28;20405;-74
2021/06/07 08:14:06;;;;;;;39.40;14.03;;;18.00;1.00;;;;;;5035660;28;20904;-74
2021/06/07 08:16:32;;;;;;;28.33;13.93;;;;;;;;;;5035816;28;20491;-74
2021/06/07 08:18:58;;;;;;;22.80;12.70;;;;;;;;;;5049443;28;20244;-74
2021/06/07 08:21:23;;;;;;;25.73;12.90;;;18.20;1.00;;;;;;5055212;28;20392;-74
2021/06/07 08:23:51;;;;;;;25.40;13.40;;;18.20;1.00;;;;;;5054953;28;20508;-74
2021/06/07 08:26:17;;;;;;;29.43;13.73;;;;;;;;;;5055069;28;20165;-74
2021/06/07 08:28:43;;;;;;;26.70;13.40;;;18.30;1.00;;;;;;5045314;28;20422;-74
2021/06/07 08:31:09;;;;;;;30.60;13.60;;;;;;;;;;5035991;28;20447;-74
2021/06/07 08:33:36;;;;;;;33.60;12.80;;;18.30;1.00;;;;;;5054900;28;20177;-74
2021/06/07 08:36:04;;;;;;;28.70;12.97;;;18.30;1.00;;;;;;5054347;28;20825;-74
2021/06/07 08:38:29;;;;;;;27.50;13.33;;;18.40;1.00;;;;;;5053952;28;20459;-74
2021/06/07 08:40:58;;;;;;;26.20;13.10;;;18.40;1.00;;;;;;5055558;28;20891;-74
2021/06/07 08:43:52;;;;;;;23.70;12.93;;;18.50;1.00;;;;;;5056288;28;20169;-77
2021/06/07 08:46:18;;;;;;;24.17;12.73;;;;;;;;;;5048589;28;20907;-77
2021/06/07 08:48:44;;;;;;;21.93;13.03;;;;;;;;;;5044787;28;20410;-77
2021/06/07 08:51:10;;;;;;;25.30;13.67;;;18.80;1.00;;;;;;5034899;28;20806;-77
2021/06/07 08:53:37;;;;;;;22.40;12.07;;;18.90;1.00;;;;;;5050600;28;20403;-77
2021/06/07 08:56:03;;;;;;;29.33;13.50;;;19.00;1.00;;;;;;5055862;28;20394;-77
2021/06/07 08:58:29;;;;;;;25.30;12.23;;;;;;;;;;5035055;28;20445;-77
2021/06/07 09:00:55;;;;;;;26.10;12.80;;;19.10;1.00;;;;;;5034703;28;20395;-77
2021/06/07 09:03:28;;;;;;;20.70;11.77;;;19.30;1.00;;;;;;5049991;28;20444;-76
2021/06/07 09:05:56;;;;;;;26.17;12.80;;;19.40;1.00;;;;;;5041739;28;20167;-77
2021/06/07 09:08:30;;;;;;;38.53;13.00;;;19.60;1.00;;;;;;5046389;28;20411;-79
2021/06/07 09:11:04;;;;;;;46.17;15.33;;;19.80;1.00;;;;;;5032691;28;20437;-77
2021/06/07 09:13:46;;;;;;;25.80;12.37;;;20.10;1.00;;;;;;5048352;28;20396;-78
2021/06/07 09:16:22;;;;;;;20.10;10.40;;;20.00;1.00;;;;;;5053351;28;20517;-77
2021/06/07 09:19:21;;;;;;;17.80;10.80;;;20.20;1.00;;;;;;5054898;28;20461;-78
2021/06/07 09:22:23;;;;;;;27.83;12.07;;;20.30;1.00;;;;;;5055082;28;20410;-78
2021/06/07 09:25:26;;;;;;;22.47;11.67;;;20.50;1.00;;;;;;5052869;28;20899;-77
2021/06/07 09:28:21;;;;;;;19.93;11.30;;;20.60;1.00;;;;;;5013308;28;20766;-78
2021/06/07 09:30:57;;;;;;;24.60;10.70;;;20.90;1.00;;;;;;5001283;28;20420;-77
2021/06/07 09:33:51;;;;;;;19.70;11.10;;;21.10;1.00;;;;;;4996142;28;20791;-77
2021/06/07 09:36:24;;;;;;;21.67;11.10;;;21.30;1.00;;;;;;5012202;28;20852;-77
2021/06/07 09:39:21;;;;;;;18.30;10.90;;;21.40;1.00;;;;;;5012712;28;20453;-77
2021/06/07 09:42:04;;;;;;;17.00;9.30;;;21.60;1.00;;;;;;5010376;28;20421;-77
2021/06/07 09:44:49;;;;;;;18.20;10.23;;;21.70;1.00;;;;;;5001100;28;20417;-82
2021/06/07 09:50:55;;;;;;;23.03;10.63;;;21.90;1.00;;;;;;5011528;28;20469;-81
2021/06/07 09:53:52;;;;;;;19.53;10.40;;;22.00;1.00;;;;;;5004451;28;20830;-82
2021/06/07 09:56:23;;;;;;;15.93;10.37;;;;;;;;;;5005573;28;20433;-82
2021/06/07 09:58:53;;;;;;;20.20;9.67;;;22.40;1.00;;;;;;5011963;28;20477;-77
2021/06/07 10:01:30;;;;;;;13.67;9.20;;;22.50;1.00;;;;;;5011924;28;20420;-77
2021/06/07 10:04:51;;;;;;;15.40;9.53;;;22.60;1.00;;;;;;5042114;28;20425;-77
2021/06/07 10:07:23;;;;;;;13.47;8.27;;;22.60;1.00;;;;;;5054052;28;20401;-77
2021/06/07 10:10:07;;;;;;;24.83;10.57;;;22.80;1.00;;;;;;5053304;28;20393;-77
2021/06/07 10:12:59;;;;;;;23.67;9.90;;;22.80;1.00;;;;;;5035903;28;20464;-78
2021/06/07 10:15:51;;;;;;;24.93;11.00;;;22.80;1.00;;;;;;5034422;28;20422;-82
2021/06/07 10:18:22;;;;;;;18.17;9.03;;;23.00;1.00;;;;;;5032551;28;20466;-81
2021/06/07 10:20:52;;;;;;;18.03;9.97;;;23.00;1.00;;;;;;5034035;28;20477;-81
2021/06/07 10:23:30;;;;;;;16.53;9.90;;;22.80;1.00;;;;;;5034187;28;20457;-79
2021/06/07 10:29:18;;;;;;;21.03;10.43;;;22.90;1.00;;;;;;5034120;28;20873;-78
2021/06/07 10:32:05;;;;;;;15.43;10.00;;;23.00;1.00;;;;;;5033948;28;20407;-78
2021/06/07 10:38:13;;;;;;;14.73;9.27;;;;;;;;;;5053944;28;20457;-79
2021/06/07 10:41:27;;;;;;;19.13;9.03;;;23.30;1.00;;;;;;5053352;28;20442;-77
2021/06/07 10:47:45;;;;;;;16.93;9.10;;;23.70;1.00;;;;;;5051734;28;20433;-78
2021/06/07 10:50:21;;;;;;;15.77;8.93;;;23.80;1.00;;;;;;5053450;28;20407;-78
2021/06/07 10:52:54;;;;;;;15.03;8.87;;;23.80;1.00;;;;;;5053509;28;20711;-78
2021/06/07 10:58:55;;;;;;;15.63;9.20;;;23.90;1.00;;;;;;5046757;28;20472;-78
2021/06/07 11:01:53;;;;;;;17.40;9.60;;;23.80;1.00;;;;;;5053443;28;20454;-79
2021/06/07 11:04:35;;;;;;;17.90;9.60;;;23.80;1.00;;;;;;5052953;28;20416;-78
2021/06/07 11:07:43;;;;;;;11.40;8.23;;;23.90;1.00;;;;;;5053288;28;20383;-78
2021/06/07 11:10:51;;;;;;;21.20;9.07;;;23.80;1.00;;;;;;5053493;28;20942;-78
2021/06/07 11:13:49;;;;;;;12.03;8.70;;;23.60;1.00;;;;;;5047141;28;20494;-78
2021/06/07 11:16:28;;;;;;;13.13;8.43;;;23.40;1.00;;;;;;5053852;28;20834;-82
2021/06/07 11:19:10;;;;;;;19.90;9.23;;;;;;;;;;5052943;28;20462;-81
2021/06/07 11:21:57;;;;;;;22.47;9.50;;;;;;;;;;5038446;28;20407;-82
2021/06/07 11:28:37;;;;;;;15.60;9.57;;;22.60;1.00;;;;;;5033318;28;20454;-78
2021/06/07 11:31:05;;;;;;;14.67;9.43;;;22.60;1.00;;;;;;5002932;28;20448;-78
2021/06/07 11:33:58;;;;;;;14.70;8.93;;;22.60;1.00;;;;;;5002370;28;20902;-78
2021/06/07 11:36:43;;;;;;;16.40;9.67;;;22.50;1.00;;;;;;5010378;28;20521;-78
2021/06/07 11:39:12;;;;;;;17.77;8.83;;;22.60;1.00;;;;;;5010668;28;20534;-78
2021/06/07 11:42:00;;;;;;;10.77;7.80;;;22.60;1.00;;;;;;5010047;28;20415;-78
2021/06/07 11:44:44;;;;;;;14.80;8.47;;;22.70;1.00;;;;;;5010329;28;20856;-78
2021/06/07 11:47:40;;;;;;;12.80;8.40;;;22.80;1.00;;;;;;5009592;28;20933;-75
2021/06/07 11:50:12;;;;;;;14.20;9.40;;;22.80;1.00;;;;;;5009309;28;20430;-74
2021/06/07 11:52:53;;;;;;;12.53;8.73;;;22.70;1.00;;;;;;5010073;28;20373;-74
2021/06/07 11:55:19;;;;;;;14.93;9.13;;;;;;;;;;5026283;28;20441;-74
2021/06/07 11:57:46;;;;;;;15.63;8.33;;;22.90;1.00;;;;;;5025556;28;20506;-74
2021/06/07 12:00:13;;;;;;;13.20;8.63;;;22.90;1.00;;;;;;4998370;28;20919;-72
2021/06/07 12:02:39;;;;;;;16.80;8.70;;;;;;;;;;4994186;28;20420;-73
2021/06/07 12:05:07;;;;;;;12.50;8.53;;;23.40;1.00;;;;;;5004946;28;20419;-72
2021/06/07 12:07:35;;;;;;;11.73;7.93;;;23.50;1.00;;;;;;5027420;28;20419;-73
2021/06/07 12:10:03;;;;;;;12.63;7.40;;;23.70;1.00;;;;;;5044095;28;20416;-72
2021/06/07 12:12:29;;;;;;;17.27;9.10;;;;;;;;;;5035649;28;20404;-73
2021/06/07 12:14:55;;;;;;;14.93;9.17;;;;;;;;;;5039047;28;20466;-75
2021/06/07 12:17:23;;;;;;;13.33;9.00;;;23.90;1.00;;;;;;5048755;28;20917;-75
2021/06/07 12:19:54;;;;;;;13.87;8.27;;;24.30;1.00;;;;;;5035262;28;20452;-76
2021/06/07 12:22:34;;;;;;;15.60;8.20;;;24.70;1.00;;;;;;5053386;28;20420;-75
2021/06/07 12:25:19;;;;;;;14.23;8.30;;;25.00;1.00;;;;;;5054810;28;20409;-75
2021/06/07 12:30:34;;;;;;;12.63;8.23;;;26.00;1.00;;;;;;5050662;28;20441;-71
2021/06/07 12:33:00;;;;;;;9.73;7.00;;;26.30;1.00;;;;;;5036145;28;20893;-72
2021/06/07 12:35:31;;;;;;;11.43;6.80;;;26.60;1.00;;;;;;5035063;28;20409;-72
2021/06/07 12:38:00;;;;;;;10.80;7.80;;;26.70;1.00;;;;;;5035017;28;20484;-72
2021/06/07 12:40:33;;;;;;;12.50;7.87;;;27.20;1.00;;;;;;5034619;28;20906;-72
2021/06/07 12:43:10;;;;;;;12.37;7.67;;;27.30;1.00;;;;;;5035022;28;20412;-72
2021/06/07 12:45:36;;;;;;;10.70;6.20;;;27.20;1.00;;;;;;5035254;28;20456;-75
2021/06/07 12:48:14;;;;;;;10.13;6.27;;;27.30;1.00;;;;;;5034993;28;20400;-75
2021/06/07 12:50:41;;;;;;;9.00;6.40;;;27.20;1.00;;;;;;5034922;28;20204;-75
2021/06/07 12:53:07;;;;;;;12.23;6.73;;;27.40;1.00;;;;;;5034832;28;20408;-75
2021/06/07 12:55:37;;;;;;;9.10;6.03;;;27.50;1.00;;;;;;5034865;28;20455;-75
2021/06/07 12:58:12;;;;;;;10.60;6.50;;;27.70;1.00;;;;;;5043150;28;20419;-78
2021/06/07 13:00:49;;;;;;;11.80;6.00;;;27.90;1.00;;;;;;5054911;28;20442;-73
2021/06/07 13:03:24;;;;;;;9.67;5.77;;;27.90;1.00;;;;;;5061019;28;20442;-73
2021/06/07 13:06:03;;;;;;;9.03;6.07;;;27.90;1.00;;;;;;5043851;28;20435;-73
2021/06/07 13:08:29;;;;;;;10.63;5.90;;;27.90;1.00;;;;;;5054275;28;20502;-73
2021/06/07 13:11:06;;;;;;;8.40;6.40;;;27.90;1.00;;;;;;5053092;28;20414;-73
2021/06/07 13:13:37;;;;;;;8.20;6.17;;;28.00;1.00;;;;;;5054119;28;20433;-74
2021/06/07 13:16:08;;;;;;;7.27;6.00;;;28.00;1.00;;;;;;5049852;28;20471;-73
2021/06/07 13:18:54;;;;;;;7.40;6.03;;;27.80;1.00;;;;;;5042732;28;20467;-73
2021/06/07 13:21:20;;;;;;;9.33;6.40;;;27.50;1.00;;;;;;5049986;28;20491;-74
2021/06/07 13:23:53;;;;;;;7.60;5.77;;;27.60;1.00;;;;;;5040029;28;20415;-73
2021/06/07 13:26:25;;;;;;;12.63;7.20;;;27.50;1.00;;;;;;5054223;28;20446;-73
2021/06/07 13:29:09;;;;;;;10.43;6.80;;;27.60;1.00;;;;;;5053763;28;20507;-73
2021/06/07 13:32:10;;;;;;;9.40;6.70;;;27.80;1.00;;;;;;5054369;28;20431;-74
2021/06/07 13:34:45;;;;;;;16.87;6.90;;;27.80;1.00;;;;;;5045798;28;20820;-74
2021/06/07 13:37:13;;;;;;;7.43;6.07;;;27.90;1.00;;;;;;5033608;28;20519;-74
2021/06/07 13:39:41;;;;;;;17.00;6.33;;;27.80;1.00;;;;;;5038978;28;20463;-74
2021/06/07 13:42:08;;;;;;;10.30;6.60;;;;;;;;;;5047760;28;20795;-74
2021/06/07 13:44:48;;;;;;;8.87;6.00;;;27.60;1.00;;;;;;5053648;28;20422;-76
2021/06/07 13:47:18;;;;;;;9.33;6.90;;;27.60;1.00;;;;;;5054141;28;20426;-74
2021/06/07 13:50:08;;;;;;;10.90;7.50;;;27.60;1.00;;;;;;5053168;28;20427;-74
2021/06/07 13:52:46;;;;;;;8.77;5.93;;;27.40;1.00;;;;;;5040912;28;20760;-74
2021/06/07 13:55:40;;;;;;;12.50;6.77;;;27.20;1.00;;;;;;5035229;28;20767;-74
2021/06/07 13:58:35;;;;;;;13.70;6.40;;;27.00;1.00;;;;;;5034188;28;20534;-74
2021/06/07 14:01:00;;;;;;;10.50;6.60;;;27.00;1.00;;;;;;5054721;28;20516;-74
2021/06/07 14:03:29;;;;;;;9.40;6.67;;;27.00;1.00;;;;;;5053799;28;20458;-74
2021/06/07 14:05:57;;;;;;;13.00;6.63;;;27.00;1.00;;;;;;5053777;28;20173;-74
2021/06/07 14:08:40;;;;;;;9.70;6.13;;;27.00;1.00;;;;;;5053875;28;20388;-74
2021/06/07 14:11:11;;;;;;;13.40;6.50;;;26.90;1.00;;;;;;5052326;28;20417;-74
2021/06/07 14:13:37;;;;;;;7.90;6.17;;;26.90;1.00;;;;;;5053811;28;20403;-74